sensor_id;sensor_type;location;lat;lon;timestamp;P1;durP1;ratioP1;P2;durP2;ratioP2
29452;SDS011;16424;50.956;5.320;2024-01-15T00:00:03;128.38;;;117.95;;
29452;SDS011;16424;50.956;5.320;2024-01-15T00:02:30;125.47;;;114.45;;
29452;SDS011;16424;50.956;5.320;2024-01-15T00:04:56;129.73;;;118.78;;
29452;SDS011;16424;50.956;5.320;2024-01-15T00:07:22;127.53;;;118.00;;
29452;SDS011;16424;50.956;5.320;2024-01-15T00:09:47;126.75;;;116.50;;
29452;SDS011;16424;50.956;5.320;2024-01-15T00:12:13;129.25;;;119.57;;
29452;SDS011;16424;50.956;5.320;2024-01-15T00:14:39;123.28;;;114.07;;
29452;SDS011;16424;50.956;5.320;2024-01-15T00:17:04;126.43;;;116.68;;
29452;SDS011;16424;50.956;5.320;2024-01-15T00:19:30;122.57;;;112.95;;
29452;SDS011;16424;50.956;5.320;2024-01-15T00:21:57;124.40;;;115.10;;
29452;SDS011;16424;50.956;5.320;2024-01-15T00:24:23;124.90;;;115.60;;
29452;SDS011;16424;50.956;5.320;2024-01-15T00:26:49;124.78;;;115.15;;
29452;SDS011;16424;50.956;5.320;2024-01-15T00:29:15;119.30;;;109.78;;
29452;SDS011;16424;50.956;5.320;2024-01-15T00:31:40;120.60;;;111.20;;
29452;SDS011;16424;50.956;5.320;2024-01-15T00:34:06;117.18;;;107.80;;
29452;SDS011;16424;50.956;5.320;2024-01-15T00:36:32;113.72;;;105.07;;
29452;SDS011;16424;50.956;5.320;2024-01-15T00:38:57;125.85;;;115.85;;
29452;SDS011;16424;50.956;5.320;2024-01-15T00:41:23;123.30;;;113.18;;
29452;SDS011;16424;50.956;5.320;2024-01-15T00:43:49;117.22;;;107.82;;
29452;SDS011;16424;50.956;5.320;2024-01-15T00:46:14;116.53;;;107.32;;
29452;SDS011;16424;50.956;5.320;2024-01-15T00:48:40;121.50;;;111.68;;
29452;SDS011;16424;50.956;5.320;2024-01-15T00:51:06;118.63;;;109.20;;
29452;SDS011;16424;50.956;5.320;2024-01-15T00:53:32;118.32;;;108.72;;
29452;SDS011;16424;50.956;5.320;2024-01-15T00:55:58;137.38;;;126.93;;
29452;SDS011;16424;50.956;5.320;2024-01-15T00:58:23;115.60;;;106.03;;
29452;SDS011;16424;50.956;5.320;2024-01-15T01:00:49;112.68;;;103.03;;
29452;SDS011;16424;50.956;5.320;2024-01-15T01:03:14;114.22;;;105.20;;
29452;SDS011;16424;50.956;5.320;2024-01-15T01:05:40;119.00;;;109.03;;
29452;SDS011;16424;50.956;5.320;2024-01-15T01:08:06;115.43;;;106.10;;
29452;SDS011;16424;50.956;5.320;2024-01-15T01:10:31;122.70;;;112.55;;
29452;SDS011;16424;50.956;5.320;2024-01-15T01:12:57;110.65;;;101.15;;
29452;SDS011;16424;50.956;5.320;2024-01-15T01:15:23;110.38;;;101.68;;
29452;SDS011;16424;50.956;5.320;2024-01-15T01:17:49;118.63;;;109.28;;
29452;SDS011;16424;50.956;5.320;2024-01-15T01:20:15;109.57;;;99.45;;
29452;SDS011;16424;50.956;5.320;2024-01-15T01:22:41;118.53;;;108.53;;
29452;SDS011;16424;50.956;5.320;2024-01-15T01:25:07;108.93;;;99.32;;
29452;SDS011;16424;50.956;5.320;2024-01-15T01:27:33;109.22;;;99.93;;
29452;SDS011;16424;50.956;5.320;2024-01-15T01:29:58;103.57;;;94.32;;
29452;SDS011;16424;50.956;5.320;2024-01-15T01:32:24;105.55;;;96.55;;
29452;SDS011;16424;50.956;5.320;2024-01-15T01:34:50;105.78;;;97.03;;
29452;SDS011;16424;50.956;5.320;2024-01-15T01:37:15;102.75;;;94.03;;
29452;SDS011;16424;50.956;5.320;2024-01-15T01:39:41;106.28;;;97.18;;
29452;SDS011;16424;50.956;5.320;2024-01-15T01:42:09;106.85;;;97.80;;
29452;SDS011;16424;50.956;5.320;2024-01-15T01:44:35;105.32;;;96.07;;
29452;SDS011;16424;50.956;5.320;2024-01-15T01:47:00;103.68;;;94.85;;
29452;SDS011;16424;50.956;5.320;2024-01-15T01:49:27;103.03;;;93.45;;
29452;SDS011;16424;50.956;5.320;2024-01-15T01:51:54;97.65;;;89.38;;
29452;SDS011;16424;50.956;5.320;2024-01-15T01:54:22;102.10;;;93.25;;
29452;SDS011;16424;50.956;5.320;2024-01-15T01:56:48;100.45;;;92.00;;
29452;SDS011;16424;50.956;5.320;2024-01-15T01:59:15;98.95;;;90.32;;
29452;SDS011;16424;50.956;5.320;2024-01-15T02:01:42;100.00;;;91.30;;
29452;SDS011;16424;50.956;5.320;2024-01-15T02:04:09;102.28;;;93.88;;
29452;SDS011;16424;50.956;5.320;2024-01-15T02:06:36;94.30;;;86.00;;
29452;SDS011;16424;50.956;5.320;2024-01-15T02:09:02;102.63;;;94.32;;
29452;SDS011;16424;50.956;5.320;2024-01-15T02:11:30;95.25;;;87.45;;
29452;SDS011;16424;50.956;5.320;2024-01-15T02:13:56;98.82;;;90.18;;
29452;SDS011;16424;50.956;5.320;2024-01-15T02:16:22;99.03;;;90.97;;
29452;SDS011;16424;50.956;5.320;2024-01-15T02:18:47;92.93;;;84.88;;
29452;SDS011;16424;50.956;5.320;2024-01-15T02:21:13;96.68;;;88.32;;
29452;SDS011;16424;50.956;5.320;2024-01-15T02:23:39;92.20;;;84.45;;
29452;SDS011;16424;50.956;5.320;2024-01-15T02:26:05;93.78;;;85.82;;
29452;SDS011;16424;50.956;5.320;2024-01-15T02:28:31;94.05;;;86.85;;
29452;SDS011;16424;50.956;5.320;2024-01-15T02:30:58;96.07;;;88.18;;
29452;SDS011;16424;50.956;5.320;2024-01-15T02:33:23;91.22;;;83.18;;
29452;SDS011;16424;50.956;5.320;2024-01-15T02:35:49;91.68;;;84.82;;
29452;SDS011;16424;50.956;5.320;2024-01-15T02:38:17;90.00;;;82.68;;
29452;SDS011;16424;50.956;5.320;2024-01-15T02:40:43;92.72;;;85.22;;
29452;SDS011;16424;50.956;5.320;2024-01-15T02:43:10;93.40;;;85.32;;
29452;SDS011;16424;50.956;5.320;2024-01-15T02:45:35;93.43;;;86.35;;
29452;SDS011;16424;50.956;5.320;2024-01-15T02:48:01;86.55;;;79.47;;
29452;SDS011;16424;50.956;5.320;2024-01-15T02:50:27;100.50;;;92.28;;
29452;SDS011;16424;50.956;5.320;2024-01-15T02:52:52;86.80;;;79.45;;
29452;SDS011;16424;50.956;5.320;2024-01-15T02:55:18;88.22;;;81.22;;
29452;SDS011;16424;50.956;5.320;2024-01-15T02:57:44;91.65;;;84.07;;
29452;SDS011;16424;50.956;5.320;2024-01-15T03:00:09;87.18;;;80.40;;
29452;SDS011;16424;50.956;5.320;2024-01-15T03:02:36;87.05;;;79.85;;
29452;SDS011;16424;50.956;5.320;2024-01-15T03:05:12;89.60;;;82.65;;
29452;SDS011;16424;50.956;5.320;2024-01-15T03:07:37;81.43;;;75.03;;
29452;SDS011;16424;50.956;5.320;2024-01-15T03:10:04;77.75;;;71.72;;
29452;SDS011;16424;50.956;5.320;2024-01-15T03:12:31;83.55;;;77.53;;
29452;SDS011;16424;50.956;5.320;2024-01-15T03:14:56;86.45;;;80.22;;
29452;SDS011;16424;50.956;5.320;2024-01-15T03:17:22;83.40;;;77.15;;
29452;SDS011;16424;50.956;5.320;2024-01-15T03:19:48;78.07;;;72.20;;
29452;SDS011;16424;50.956;5.320;2024-01-15T03:22:14;84.90;;;78.00;;
29452;SDS011;16424;50.956;5.320;2024-01-15T03:24:40;82.80;;;76.82;;
29452;SDS011;16424;50.956;5.320;2024-01-15T03:27:06;84.28;;;78.40;;
29452;SDS011;16424;50.956;5.320;2024-01-15T03:29:32;79.15;;;73.40;;
29452;SDS011;16424;50.956;5.320;2024-01-15T03:31:58;79.30;;;72.88;;
29452;SDS011;16424;50.956;5.320;2024-01-15T03:34:23;79.20;;;73.57;;
29452;SDS011;16424;50.956;5.320;2024-01-15T03:36:49;76.85;;;71.57;;
29452;SDS011;16424;50.956;5.320;2024-01-15T03:39:15;78.50;;;72.75;;
29452;SDS011;16424;50.956;5.320;2024-01-15T03:41:40;80.22;;;74.60;;
29452;SDS011;16424;50.956;5.320;2024-01-15T03:44:06;80.68;;;74.93;;
29452;SDS011;16424;50.956;5.320;2024-01-15T03:46:32;81.43;;;75.05;;
29452;SDS011;16424;50.956;5.320;2024-01-15T03:48:57;85.63;;;79.70;;
29452;SDS011;16424;50.956;5.320;2024-01-15T03:51:23;79.97;;;74.65;;
29452;SDS011;16424;50.956;5.320;2024-01-15T03:53:49;78.72;;;73.40;;
29452;SDS011;16424;50.956;5.320;2024-01-15T03:56:15;76.30;;;70.95;;
29452;SDS011;16424;50.956;5.320;2024-01-15T03:58:40;78.18;;;73.28;;
29452;SDS011;16424;50.956;5.320;2024-01-15T04:01:09;78.95;;;73.57;;
29452;SDS011;16424;50.956;5.320;2024-01-15T04:03:35;81.35;;;76.18;;
29452;SDS011;16424;50.956;5.320;2024-01-15T04:06:02;77.90;;;73.03;;
29452;SDS011;16424;50.956;5.320;2024-01-15T04:08:31;82.45;;;76.93;;
29452;SDS011;16424;50.956;5.320;2024-01-15T04:10:56;77.97;;;72.80;;
29452;SDS011;16424;50.956;5.320;2024-01-15T04:13:22;79.97;;;74.97;;
29452;SDS011;16424;50.956;5.320;2024-01-15T04:15:48;82.95;;;77.80;;
29452;SDS011;16424;50.956;5.320;2024-01-15T04:18:15;75.30;;;70.28;;
29452;SDS011;16424;50.956;5.320;2024-01-15T04:20:41;76.72;;;71.78;;
29452;SDS011;16424;50.956;5.320;2024-01-15T04:23:06;78.95;;;73.97;;
29452;SDS011;16424;50.956;5.320;2024-01-15T04:25:32;80.18;;;75.22;;
29452;SDS011;16424;50.956;5.320;2024-01-15T04:27:58;78.47;;;73.45;;
29452;SDS011;16424;50.956;5.320;2024-01-15T04:30:24;74.45;;;69.57;;
29452;SDS011;16424;50.956;5.320;2024-01-15T04:32:49;80.35;;;75.20;;
29452;SDS011;16424;50.956;5.320;2024-01-15T04:35:15;75.25;;;70.60;;
29452;SDS011;16424;50.956;5.320;2024-01-15T04:37:41;76.85;;;71.75;;
29452;SDS011;16424;50.956;5.320;2024-01-15T04:40:06;77.18;;;72.38;;
29452;SDS011;16424;50.956;5.320;2024-01-15T04:42:32;75.40;;;70.50;;
29452;SDS011;16424;50.956;5.320;2024-01-15T04:44:58;78.82;;;73.28;;
29452;SDS011;16424;50.956;5.320;2024-01-15T04:47:24;72.18;;;67.18;;
29452;SDS011;16424;50.956;5.320;2024-01-15T04:49:50;79.65;;;74.10;;
29452;SDS011;16424;50.956;5.320;2024-01-15T04:52:16;79.90;;;74.50;;
29452;SDS011;16424;50.956;5.320;2024-01-15T04:54:41;86.68;;;80.82;;
29452;SDS011;16424;50.956;5.320;2024-01-15T04:57:07;74.00;;;69.18;;
29452;SDS011;16424;50.956;5.320;2024-01-15T04:59:33;82.70;;;77.05;;
29452;SDS011;16424;50.956;5.320;2024-01-15T05:01:58;79.68;;;74.35;;
29452;SDS011;16424;50.956;5.320;2024-01-15T05:04:24;78.25;;;73.35;;
29452;SDS011;16424;50.956;5.320;2024-01-15T05:06:50;76.07;;;70.82;;
29452;SDS011;16424;50.956;5.320;2024-01-15T05:09:16;78.57;;;72.32;;
29452;SDS011;16424;50.956;5.320;2024-01-15T05:11:43;75.50;;;70.20;;
29452;SDS011;16424;50.956;5.320;2024-01-15T05:14:08;75.72;;;70.78;;
29452;SDS011;16424;50.956;5.320;2024-01-15T05:16:34;77.60;;;71.57;;
29452;SDS011;16424;50.956;5.320;2024-01-15T05:19:00;77.38;;;71.30;;
29452;SDS011;16424;50.956;5.320;2024-01-15T05:21:25;77.68;;;72.20;;
29452;SDS011;16424;50.956;5.320;2024-01-15T05:23:51;77.18;;;71.47;;
29452;SDS011;16424;50.956;5.320;2024-01-15T05:26:17;79.50;;;73.85;;
29452;SDS011;16424;50.956;5.320;2024-01-15T05:28:42;78.90;;;72.25;;
29452;SDS011;16424;50.956;5.320;2024-01-15T05:31:08;78.90;;;72.88;;
29452;SDS011;16424;50.956;5.320;2024-01-15T05:33:34;83.95;;;77.38;;
29452;SDS011;16424;50.956;5.320;2024-01-15T05:36:00;84.30;;;78.15;;
29452;SDS011;16424;50.956;5.320;2024-01-15T05:38:25;108.32;;;99.82;;
29452;SDS011;16424;50.956;5.320;2024-01-15T05:40:52;82.88;;;75.93;;
29452;SDS011;16424;50.956;5.320;2024-01-15T05:43:18;83.18;;;76.40;;
29452;SDS011;16424;50.956;5.320;2024-01-15T05:45:44;82.30;;;75.68;;
29452;SDS011;16424;50.956;5.320;2024-01-15T05:48:10;83.47;;;76.80;;
29452;SDS011;16424;50.956;5.320;2024-01-15T05:50:36;83.03;;;76.05;;
29452;SDS011;16424;50.956;5.320;2024-01-15T05:53:02;84.68;;;77.32;;
29452;SDS011;16424;50.956;5.320;2024-01-15T05:55:27;89.30;;;81.35;;
29452;SDS011;16424;50.956;5.320;2024-01-15T05:57:53;87.38;;;80.13;;
29452;SDS011;16424;50.956;5.320;2024-01-15T06:00:19;89.85;;;82.20;;
29452;SDS011;16424;50.956;5.320;2024-01-15T06:02:44;91.80;;;84.68;;
29452;SDS011;16424;50.956;5.320;2024-01-15T06:05:10;84.28;;;77.28;;
29452;SDS011;16424;50.956;5.320;2024-01-15T06:07:36;88.80;;;81.35;;
29452;SDS011;16424;50.956;5.320;2024-01-15T06:10:02;90.28;;;82.65;;
29452;SDS011;16424;50.956;5.320;2024-01-15T06:12:29;89.00;;;81.55;;
29452;SDS011;16424;50.956;5.320;2024-01-15T06:14:56;95.43;;;87.88;;
29452;SDS011;16424;50.956;5.320;2024-01-15T06:17:21;89.25;;;82.15;;
29452;SDS011;16424;50.956;5.320;2024-01-15T06:19:47;92.03;;;84.45;;
29452;SDS011;16424;50.956;5.320;2024-01-15T06:22:12;90.47;;;83.05;;
29452;SDS011;16424;50.956;5.320;2024-01-15T06:24:38;90.70;;;83.55;;
29452;SDS011;16424;50.956;5.320;2024-01-15T06:27:04;90.03;;;82.22;;
29452;SDS011;16424;50.956;5.320;2024-01-15T06:29:29;92.60;;;84.78;;
29452;SDS011;16424;50.956;5.320;2024-01-15T06:31:55;92.47;;;85.13;;
29452;SDS011;16424;50.956;5.320;2024-01-15T06:34:21;88.50;;;81.57;;
29452;SDS011;16424;50.956;5.320;2024-01-15T06:36:46;94.32;;;87.22;;
29452;SDS011;16424;50.956;5.320;2024-01-15T06:39:12;90.68;;;83.93;;
29452;SDS011;16424;50.956;5.320;2024-01-15T06:41:38;91.55;;;84.13;;
29452;SDS011;16424;50.956;5.320;2024-01-15T06:44:08;90.65;;;83.53;;
29452;SDS011;16424;50.956;5.320;2024-01-15T06:46:41;89.88;;;82.72;;
29452;SDS011;16424;50.956;5.320;2024-01-15T06:49:07;88.45;;;81.80;;
29452;SDS011;16424;50.956;5.320;2024-01-15T06:51:33;86.38;;;80.25;;
29452;SDS011;16424;50.956;5.320;2024-01-15T06:53:59;100.80;;;93.40;;
29452;SDS011;16424;50.956;5.320;2024-01-15T06:56:24;85.45;;;79.22;;
29452;SDS011;16424;50.956;5.320;2024-01-15T06:58:50;89.85;;;82.50;;
29452;SDS011;16424;50.956;5.320;2024-01-15T07:01:15;86.57;;;80.38;;
29452;SDS011;16424;50.956;5.320;2024-01-15T07:03:41;80.00;;;74.25;;
29452;SDS011;16424;50.956;5.320;2024-01-15T07:06:07;81.35;;;74.78;;
29452;SDS011;16424;50.956;5.320;2024-01-15T07:08:32;77.30;;;72.00;;
29452;SDS011;16424;50.956;5.320;2024-01-15T07:10:58;80.72;;;74.63;;
29452;SDS011;16424;50.956;5.320;2024-01-15T07:13:23;75.72;;;70.30;;
29452;SDS011;16424;50.956;5.320;2024-01-15T07:15:49;78.97;;;73.38;;
29452;SDS011;16424;50.956;5.320;2024-01-15T07:18:15;78.40;;;72.88;;
29452;SDS011;16424;50.956;5.320;2024-01-15T07:20:41;75.93;;;70.72;;
29452;SDS011;16424;50.956;5.320;2024-01-15T07:23:07;76.47;;;70.97;;
29452;SDS011;16424;50.956;5.320;2024-01-15T07:25:32;74.15;;;69.18;;
29452;SDS011;16424;50.956;5.320;2024-01-15T07:27:58;73.68;;;68.85;;
29452;SDS011;16424;50.956;5.320;2024-01-15T07:30:24;72.57;;;67.53;;
29452;SDS011;16424;50.956;5.320;2024-01-15T07:32:50;76.07;;;70.85;;
29452;SDS011;16424;50.956;5.320;2024-01-15T07:35:17;72.28;;;67.75;;
29452;SDS011;16424;50.956;5.320;2024-01-15T07:37:43;76.88;;;72.00;;
29452;SDS011;16424;50.956;5.320;2024-01-15T07:40:09;71.90;;;67.40;;
29452;SDS011;16424;50.956;5.320;2024-01-15T07:42:35;72.65;;;68.32;;
29452;SDS011;16424;50.956;5.320;2024-01-15T07:45:01;68.50;;;64.38;;
29452;SDS011;16424;50.956;5.320;2024-01-15T07:47:27;71.47;;;66.32;;
29452;SDS011;16424;50.956;5.320;2024-01-15T07:49:53;74.70;;;69.78;;
29452;SDS011;16424;50.956;5.320;2024-01-15T07:52:19;76.47;;;71.22;;
29452;SDS011;16424;50.956;5.320;2024-01-15T07:54:44;69.15;;;64.95;;
29452;SDS011;16424;50.956;5.320;2024-01-15T07:57:10;74.80;;;70.20;;
29452;SDS011;16424;50.956;5.320;2024-01-15T07:59:36;70.30;;;65.90;;
29452;SDS011;16424;50.956;5.320;2024-01-15T08:02:02;70.63;;;66.38;;
29452;SDS011;16424;50.956;5.320;2024-01-15T08:04:27;70.20;;;66.13;;
29452;SDS011;16424;50.956;5.320;2024-01-15T08:06:53;77.65;;;72.63;;
29452;SDS011;16424;50.956;5.320;2024-01-15T08:09:19;72.43;;;67.53;;
29452;SDS011;16424;50.956;5.320;2024-01-15T08:11:45;66.95;;;62.78;;
29452;SDS011;16424;50.956;5.320;2024-01-15T08:14:11;71.38;;;67.05;;
29452;SDS011;16424;50.956;5.320;2024-01-15T08:16:37;71.15;;;66.55;;
29452;SDS011;16424;50.956;5.320;2024-01-15T08:19:02;68.47;;;64.57;;
29452;SDS011;16424;50.956;5.320;2024-01-15T08:21:28;71.47;;;67.10;;
29452;SDS011;16424;50.956;5.320;2024-01-15T08:23:56;70.85;;;66.50;;
29452;SDS011;16424;50.956;5.320;2024-01-15T08:26:22;75.13;;;70.57;;
29452;SDS011;16424;50.956;5.320;2024-01-15T08:28:47;72.65;;;68.53;;
29452;SDS011;16424;50.956;5.320;2024-01-15T08:31:13;71.95;;;66.97;;
29452;SDS011;16424;50.956;5.320;2024-01-15T08:33:39;73.60;;;69.57;;
29452;SDS011;16424;50.956;5.320;2024-01-15T08:36:05;72.53;;;68.30;;
29452;SDS011;16424;50.956;5.320;2024-01-15T08:38:30;74.05;;;69.85;;
29452;SDS011;16424;50.956;5.320;2024-01-15T08:40:56;73.93;;;69.38;;
29452;SDS011;16424;50.956;5.320;2024-01-15T08:43:24;72.32;;;68.05;;
29452;SDS011;16424;50.956;5.320;2024-01-15T08:45:50;76.10;;;71.63;;
29452;SDS011;16424;50.956;5.320;2024-01-15T08:48:16;75.00;;;70.57;;
29452;SDS011;16424;50.956;5.320;2024-01-15T08:50:42;73.95;;;69.13;;
29452;SDS011;16424;50.956;5.320;2024-01-15T08:53:10;79.80;;;74.72;;
29452;SDS011;16424;50.956;5.320;2024-01-15T08:55:36;77.13;;;72.85;;
29452;SDS011;16424;50.956;5.320;2024-01-15T08:58:02;77.90;;;73.30;;
29452;SDS011;16424;50.956;5.320;2024-01-15T09:00:28;75.45;;;70.90;;
29452;SDS011;16424;50.956;5.320;2024-01-15T09:02:54;75.05;;;70.75;;
29452;SDS011;16424;50.956;5.320;2024-01-15T09:05:21;75.43;;;70.95;;
29452;SDS011;16424;50.956;5.320;2024-01-15T09:07:47;71.78;;;67.68;;
29452;SDS011;16424;50.956;5.320;2024-01-15T09:10:13;73.60;;;69.25;;
29452;SDS011;16424;50.956;5.320;2024-01-15T09:12:39;75.07;;;70.90;;
29452;SDS011;16424;50.956;5.320;2024-01-15T09:15:05;71.43;;;67.53;;
29452;SDS011;16424;50.956;5.320;2024-01-15T09:17:31;67.00;;;63.38;;
29452;SDS011;16424;50.956;5.320;2024-01-15T09:19:57;69.93;;;66.10;;
29452;SDS011;16424;50.956;5.320;2024-01-15T09:22:23;73.00;;;68.82;;
29452;SDS011;16424;50.956;5.320;2024-01-15T09:24:49;68.35;;;64.35;;
29452;SDS011;16424;50.956;5.320;2024-01-15T09:27:14;73.53;;;69.32;;
29452;SDS011;16424;50.956;5.320;2024-01-15T09:29:41;68.43;;;64.80;;
29452;SDS011;16424;50.956;5.320;2024-01-15T09:32:07;64.60;;;60.92;;
29452;SDS011;16424;50.956;5.320;2024-01-15T09:34:33;69.13;;;64.90;;
29452;SDS011;16424;50.956;5.320;2024-01-15T09:36:59;64.13;;;60.33;;
29452;SDS011;16424;50.956;5.320;2024-01-15T09:39:25;70.63;;;66.40;;
29452;SDS011;16424;50.956;5.320;2024-01-15T09:41:53;67.72;;;64.18;;
29452;SDS011;16424;50.956;5.320;2024-01-15T09:44:19;74.75;;;70.00;;
29452;SDS011;16424;50.956;5.320;2024-01-15T09:46:46;65.88;;;62.13;;
29452;SDS011;16424;50.956;5.320;2024-01-15T09:49:16;71.00;;;66.68;;
29452;SDS011;16424;50.956;5.320;2024-01-15T09:51:43;64.57;;;60.53;;
29452;SDS011;16424;50.956;5.320;2024-01-15T09:54:09;63.35;;;59.63;;
29452;SDS011;16424;50.956;5.320;2024-01-15T09:56:35;62.22;;;58.63;;
29452;SDS011;16424;50.956;5.320;2024-01-15T09:59:01;63.90;;;60.38;;
29452;SDS011;16424;50.956;5.320;2024-01-15T10:01:29;67.72;;;63.95;;
29452;SDS011;16424;50.956;5.320;2024-01-15T10:03:56;67.05;;;63.20;;
29452;SDS011;16424;50.956;5.320;2024-01-15T10:06:22;66.90;;;62.92;;
29452;SDS011;16424;50.956;5.320;2024-01-15T10:08:51;70.63;;;66.63;;
29452;SDS011;16424;50.956;5.320;2024-01-15T10:11:17;71.53;;;67.50;;
29452;SDS011;16424;50.956;5.320;2024-01-15T10:13:43;70.47;;;66.18;;
29452;SDS011;16424;50.956;5.320;2024-01-15T10:16:09;75.57;;;71.38;;
29452;SDS011;16424;50.956;5.320;2024-01-15T10:18:36;74.85;;;70.85;;
29452;SDS011;16424;50.956;5.320;2024-01-15T10:21:08;73.32;;;69.30;;
29452;SDS011;16424;50.956;5.320;2024-01-15T10:23:33;78.50;;;74.30;;
29452;SDS011;16424;50.956;5.320;2024-01-15T10:25:59;79.90;;;74.97;;
29452;SDS011;16424;50.956;5.320;2024-01-15T10:28:26;82.80;;;78.10;;
29452;SDS011;16424;50.956;5.320;2024-01-15T10:30:53;85.28;;;80.75;;
29452;SDS011;16424;50.956;5.320;2024-01-15T10:33:23;88.55;;;83.55;;
29452;SDS011;16424;50.956;5.320;2024-01-15T10:35:50;82.93;;;77.60;;
29452;SDS011;16424;50.956;5.320;2024-01-15T10:38:24;91.25;;;86.60;;
29452;SDS011;16424;50.956;5.320;2024-01-15T10:40:51;97.70;;;91.95;;
29452;SDS011;16424;50.956;5.320;2024-01-15T10:43:20;96.75;;;91.47;;
29452;SDS011;16424;50.956;5.320;2024-01-15T10:45:47;94.22;;;88.85;;
29452;SDS011;16424;50.956;5.320;2024-01-15T10:48:15;92.07;;;87.03;;
29452;SDS011;16424;50.956;5.320;2024-01-15T10:50:41;99.63;;;93.85;;
29452;SDS011;16424;50.956;5.320;2024-01-15T10:53:08;93.50;;;88.18;;
29452;SDS011;16424;50.956;5.320;2024-01-15T10:55:35;97.53;;;91.45;;
29452;SDS011;16424;50.956;5.320;2024-01-15T10:58:02;104.30;;;98.35;;
29452;SDS011;16424;50.956;5.320;2024-01-15T11:00:28;107.80;;;101.90;;
29452;SDS011;16424;50.956;5.320;2024-01-15T11:02:55;96.63;;;91.28;;
29452;SDS011;16424;50.956;5.320;2024-01-15T11:05:22;114.45;;;107.43;;
29452;SDS011;16424;50.956;5.320;2024-01-15T11:07:48;98.05;;;92.50;;
29452;SDS011;16424;50.956;5.320;2024-01-15T11:11:00;105.68;;;99.85;;
29452;SDS011;16424;50.956;5.320;2024-01-15T11:13:07;109.85;;;103.82;;
29452;SDS011;16424;50.956;5.320;2024-01-15T11:16:00;115.82;;;109.00;;
29452;SDS011;16424;50.956;5.320;2024-01-15T11:18:28;136.85;;;129.52;;
29452;SDS011;16424;50.956;5.320;2024-01-15T11:29:03;123.25;;;116.18;;
29452;SDS011;16424;50.956;5.320;2024-01-15T11:32:03;117.97;;;111.47;;
29452;SDS011;16424;50.956;5.320;2024-01-15T11:34:20;116.18;;;109.60;;
29452;SDS011;16424;50.956;5.320;2024-01-15T11:37:06;117.63;;;111.18;;
29452;SDS011;16424;50.956;5.320;2024-01-15T11:42:01;113.25;;;107.18;;
29452;SDS011;16424;50.956;5.320;2024-01-15T11:44:28;134.70;;;127.38;;
29452;SDS011;16424;50.956;5.320;2024-01-15T11:46:58;111.45;;;105.20;;
29452;SDS011;16424;50.956;5.320;2024-01-15T11:54:37;113.88;;;107.55;;
29452;SDS011;16424;50.956;5.320;2024-01-15T11:57:08;117.95;;;112.07;;
29452;SDS011;16424;50.956;5.320;2024-01-15T11:59:41;122.68;;;116.15;;
29452;SDS011;16424;50.956;5.320;2024-01-15T12:02:08;106.60;;;100.95;;
29452;SDS011;16424;50.956;5.320;2024-01-15T12:04:36;102.47;;;97.05;;
29452;SDS011;16424;50.956;5.320;2024-01-15T12:07:02;103.63;;;98.20;;
29452;SDS011;16424;50.956;5.320;2024-01-15T12:09:28;99.28;;;94.25;;
29452;SDS011;16424;50.956;5.320;2024-01-15T12:11:56;103.32;;;98.10;;
29452;SDS011;16424;50.956;5.320;2024-01-15T12:14:32;89.30;;;84.72;;
29452;SDS011;16424;50.956;5.320;2024-01-15T12:16:59;93.22;;;88.53;;
29452;SDS011;16424;50.956;5.320;2024-01-15T12:19:25;89.10;;;84.70;;
29452;SDS011;16424;50.956;5.320;2024-01-15T12:21:51;94.60;;;89.95;;
29452;SDS011;16424;50.956;5.320;2024-01-15T12:24:17;85.63;;;81.45;;
29452;SDS011;16424;50.956;5.320;2024-01-15T12:26:43;90.30;;;85.57;;
29452;SDS011;16424;50.956;5.320;2024-01-15T12:29:10;148.40;;;140.93;;
29452;SDS011;16424;50.956;5.320;2024-01-15T12:31:36;81.68;;;77.53;;
29452;SDS011;16424;50.956;5.320;2024-01-15T12:34:02;81.55;;;77.20;;
29452;SDS011;16424;50.956;5.320;2024-01-15T12:36:30;79.65;;;75.68;;
29452;SDS011;16424;50.956;5.320;2024-01-15T12:38:59;79.88;;;75.95;;
29452;SDS011;16424;50.956;5.320;2024-01-15T12:41:25;75.20;;;71.35;;
29452;SDS011;16424;50.956;5.320;2024-01-15T12:43:51;73.95;;;70.13;;
29452;SDS011;16424;50.956;5.320;2024-01-15T12:46:17;71.10;;;67.35;;
29452;SDS011;16424;50.956;5.320;2024-01-15T12:48:44;90.05;;;85.38;;
29452;SDS011;16424;50.956;5.320;2024-01-15T12:51:09;100.93;;;95.03;;
29452;SDS011;16424;50.956;5.320;2024-01-15T12:53:35;66.00;;;62.53;;
29452;SDS011;16424;50.956;5.320;2024-01-15T12:56:01;78.78;;;74.70;;
29452;SDS011;16424;50.956;5.320;2024-01-15T12:58:27;71.25;;;67.22;;
29452;SDS011;16424;50.956;5.320;2024-01-15T13:00:53;63.80;;;60.55;;
29452;SDS011;16424;50.956;5.320;2024-01-15T13:03:18;63.97;;;60.63;;
29452;SDS011;16424;50.956;5.320;2024-01-15T13:05:44;67.60;;;63.88;;
29452;SDS011;16424;50.956;5.320;2024-01-15T13:08:10;69.97;;;66.30;;
29452;SDS011;16424;50.956;5.320;2024-01-15T13:10:36;69.00;;;65.30;;
29452;SDS011;16424;50.956;5.320;2024-01-15T13:13:01;75.00;;;70.93;;
29452;SDS011;16424;50.956;5.320;2024-01-15T13:15:27;69.38;;;65.85;;
29452;SDS011;16424;50.956;5.320;2024-01-15T13:17:53;68.88;;;65.15;;
29452;SDS011;16424;50.956;5.320;2024-01-15T13:20:19;79.95;;;75.72;;
29452;SDS011;16424;50.956;5.320;2024-01-15T13:22:44;95.38;;;90.57;;
29452;SDS011;16424;50.956;5.320;2024-01-15T13:25:10;69.78;;;66.13;;
29452;SDS011;16424;50.956;5.320;2024-01-15T13:27:36;71.93;;;68.30;;
29452;SDS011;16424;50.956;5.320;2024-01-15T13:30:02;62.42;;;59.17;;
29452;SDS011;16424;50.956;5.320;2024-01-15T13:32:29;68.90;;;65.40;;
29452;SDS011;16424;50.956;5.320;2024-01-15T13:34:55;67.28;;;63.67;;
29452;SDS011;16424;50.956;5.320;2024-01-15T13:37:21;79.38;;;75.45;;
29452;SDS011;16424;50.956;5.320;2024-01-15T13:39:49;70.63;;;67.07;;
29452;SDS011;16424;50.956;5.320;2024-01-15T13:42:17;64.63;;;61.30;;
29452;SDS011;16424;50.956;5.320;2024-01-15T13:44:42;66.43;;;62.90;;
29452;SDS011;16424;50.956;5.320;2024-01-15T13:47:08;69.53;;;66.07;;
29452;SDS011;16424;50.956;5.320;2024-01-15T13:49:35;63.05;;;60.00;;
29452;SDS011;16424;50.956;5.320;2024-01-15T13:52:01;66.18;;;62.78;;
29452;SDS011;16424;50.956;5.320;2024-01-15T13:54:29;64.75;;;61.30;;
29452;SDS011;16424;50.956;5.320;2024-01-15T13:56:55;79.07;;;75.00;;
29452;SDS011;16424;50.956;5.320;2024-01-15T13:59:21;62.90;;;59.70;;
29452;SDS011;16424;50.956;5.320;2024-01-15T14:01:46;102.75;;;97.25;;
29452;SDS011;16424;50.956;5.320;2024-01-15T14:04:12;68.05;;;64.53;;
29452;SDS011;16424;50.956;5.320;2024-01-15T14:06:38;64.70;;;61.28;;
29452;SDS011;16424;50.956;5.320;2024-01-15T14:09:04;74.47;;;70.63;;
29452;SDS011;16424;50.956;5.320;2024-01-15T14:11:30;65.88;;;62.47;;
29452;SDS011;16424;50.956;5.320;2024-01-15T14:13:56;68.47;;;64.22;;
29452;SDS011;16424;50.956;5.320;2024-01-15T14:16:22;64.35;;;61.05;;
29452;SDS011;16424;50.956;5.320;2024-01-15T14:18:47;74.22;;;70.15;;
29452;SDS011;16424;50.956;5.320;2024-01-15T14:21:13;89.28;;;84.75;;
29452;SDS011;16424;50.956;5.320;2024-01-15T14:23:39;99.40;;;93.72;;
29452;SDS011;16424;50.956;5.320;2024-01-15T14:26:05;80.72;;;76.57;;